createdAt,value
2022-08-12T00:01:01.868Z,25.00
2022-08-12T00:03:47.438Z,24.90
2022-08-12T00:06:33.369Z,25.00
2022-08-12T00:09:24.384Z,24.90
2022-08-12T00:12:12.740Z,24.90
2022-08-12T00:14:59.327Z,24.90
2022-08-12T00:20:16.436Z,24.90
2022-08-12T00:23:03.038Z,24.90
2022-08-12T00:26:21.798Z,24.90
2022-08-12T00:29:02.566Z,24.80
2022-08-12T00:31:48.608Z,24.80
2022-08-12T00:34:36.841Z,24.80
2022-08-12T00:37:24.056Z,24.70
2022-08-12T00:40:10.947Z,24.70
2022-08-12T00:42:40.731Z,24.60
2022-08-12T00:45:10.185Z,24.60
2022-08-12T00:47:40.861Z,24.60
2022-08-12T00:50:18.330Z,24.60
2022-08-12T00:52:48.554Z,24.50
2022-08-12T00:55:18.271Z,24.50
2022-08-12T00:57:48.864Z,24.50
2022-08-12T01:00:21.582Z,24.40
2022-08-12T01:02:52.824Z,24.40
2022-08-12T01:05:41.631Z,24.30
2022-08-12T01:08:27.902Z,24.30
2022-08-12T01:11:15.238Z,24.30
2022-08-12T01:13:48.427Z,24.20
2022-08-12T01:16:19.807Z,24.20
2022-08-12T01:18:48.257Z,24.10
2022-08-12T01:21:44.962Z,24.10
2022-08-12T01:24:33.905Z,24.10
2022-08-12T01:27:07.511Z,24.00
2022-08-12T01:29:42.833Z,24.00
2022-08-12T01:32:15.107Z,24.00
2022-08-12T01:34:49.345Z,23.90
2022-08-12T01:37:20.366Z,23.90
2022-08-12T01:40:33.273Z,23.90
2022-08-12T01:42:46.992Z,23.80
2022-08-12T01:45:17.724Z,23.70
2022-08-12T01:48:05.894Z,23.70
2022-08-12T01:50:43.159Z,23.70
2022-08-12T01:53:13.722Z,23.60
2022-08-12T01:55:46.512Z,23.70
2022-08-12T01:58:28.991Z,23.60
2022-08-12T02:01:03.916Z,23.60
2022-08-12T02:04:13.418Z,23.60
2022-08-12T02:07:11.627Z,23.60
2022-08-12T02:10:11.383Z,23.60
2022-08-12T02:13:10.109Z,23.50
2022-08-12T02:15:46.762Z,23.50
2022-08-12T02:18:32.768Z,23.50
2022-08-12T02:21:05.393Z,23.40
2022-08-12T02:23:36.283Z,23.40
2022-08-12T02:26:08.163Z,23.40
2022-08-12T02:28:39.187Z,23.40
2022-08-12T02:31:10.064Z,23.40
2022-08-12T02:33:39.312Z,23.40
2022-08-12T02:36:08.740Z,23.30
2022-08-12T02:38:37.877Z,23.30
2022-08-12T02:41:08.360Z,23.30
2022-08-12T02:43:46.789Z,23.30
2022-08-12T02:46:19.583Z,23.20
2022-08-12T02:48:52.400Z,23.20
2022-08-12T02:51:24.602Z,23.20
2022-08-12T02:54:02.915Z,23.20
2022-08-12T02:56:38.019Z,23.20
2022-08-12T02:59:12.254Z,23.20
2022-08-12T03:01:48.198Z,23.20
2022-08-12T03:04:24.555Z,23.20
2022-08-12T03:07:05.519Z,23.20
2022-08-12T03:10:03.717Z,23.10
2022-08-12T03:12:33.778Z,23.10
2022-08-12T03:15:10.183Z,23.10
2022-08-12T03:18:24.610Z,23.00
2022-08-12T03:20:41.014Z,23.00
2022-08-12T03:23:17.338Z,23.00
2022-08-12T03:25:59.380Z,23.00
2022-08-12T03:28:47.175Z,22.90
2022-08-12T03:31:17.726Z,22.90
2022-08-12T03:34:00.568Z,22.90
2022-08-12T03:36:30.812Z,22.90
2022-08-12T03:39:35.442Z,22.90
2022-08-12T03:42:28.322Z,22.90
2022-08-12T03:45:30.816Z,22.90
2022-08-12T03:48:23.605Z,22.90
2022-08-12T03:51:10.271Z,22.80
2022-08-12T03:53:56.912Z,22.80
2022-08-12T03:56:43.175Z,22.80
2022-08-12T03:59:29.110Z,22.80
2022-08-12T04:01:58.619Z,22.70
2022-08-12T04:04:34.850Z,22.70
2022-08-12T04:07:06.651Z,22.70
2022-08-12T04:09:35.668Z,22.80
2022-08-12T04:12:22.846Z,22.80
2022-08-12T04:14:57.093Z,22.80
2022-08-12T04:17:26.860Z,22.80
2022-08-12T04:19:57.395Z,22.90
2022-08-12T04:22:30.950Z,22.90
2022-08-12T04:25:02.438Z,22.90
2022-08-12T04:27:32.278Z,22.90
2022-08-12T04:30:16.369Z,23.00
2022-08-12T04:32:53.825Z,23.00
2022-08-12T04:35:23.859Z,23.00
2022-08-12T04:37:58.452Z,23.10
2022-08-12T04:40:31.237Z,23.10
2022-08-12T04:43:01.199Z,23.20
2022-08-12T04:45:30.644Z,23.10
2022-08-12T04:47:59.074Z,23.20
2022-08-12T04:50:36.116Z,23.20
2022-08-12T04:53:06.773Z,23.20
2022-08-12T04:55:38.215Z,23.30
2022-08-12T04:58:06.849Z,23.30
2022-08-12T05:00:36.101Z,23.30
2022-08-12T05:03:05.723Z,23.40
2022-08-12T05:05:37.103Z,23.40
2022-08-12T05:08:07.977Z,23.40
2022-08-12T05:10:36.484Z,23.50
2022-08-12T05:13:09.495Z,23.50
2022-08-12T05:16:03.766Z,23.60
2022-08-12T05:18:29.766Z,23.60
2022-08-12T05:21:00.945Z,23.70
2022-08-12T05:23:32.120Z,23.70
2022-08-12T05:26:04.516Z,23.70
2022-08-12T05:28:33.506Z,23.80
2022-08-12T05:31:03.030Z,23.90
2022-08-12T05:33:38.025Z,23.90
2022-08-12T05:36:09.514Z,24.00
2022-08-12T05:38:55.627Z,24.00
2022-08-12T05:41:25.404Z,24.10
2022-08-12T05:43:55.738Z,24.10
2022-08-12T05:46:26.109Z,24.20
2022-08-12T05:48:56.379Z,24.30
2022-08-12T05:51:39.829Z,24.30
2022-08-12T05:54:10.943Z,24.40
2022-08-12T05:56:40.158Z,24.50
2022-08-12T05:59:11.339Z,24.60
2022-08-12T06:02:11.254Z,24.70
2022-08-12T06:04:28.789Z,24.70
2022-08-12T06:06:58.773Z,24.80
2022-08-12T06:09:31.063Z,24.90
2022-08-12T06:12:06.248Z,25.00
2022-08-12T06:14:38.777Z,25.10
2022-08-12T06:17:09.282Z,25.20
2022-08-12T06:20:26.971Z,25.20
2022-08-12T06:22:28.510Z,25.30
2022-08-12T06:24:57.073Z,25.40
2022-08-12T06:27:25.484Z,25.40
2022-08-12T06:30:08.283Z,25.50
2022-08-12T06:32:58.449Z,25.60
2022-08-12T06:35:47.843Z,25.70
2022-08-12T06:38:20.743Z,25.70
2022-08-12T06:41:08.306Z,25.60
2022-08-12T06:44:06.431Z,25.00
2022-08-12T06:46:26.849Z,24.60
2022-08-12T06:48:59.161Z,24.30
2022-08-12T06:51:29.374Z,24.10
2022-08-12T06:54:00.195Z,23.90
2022-08-12T06:56:59.482Z,23.90
2022-08-12T06:59:17.046Z,23.80
2022-08-12T07:01:51.240Z,23.80
2022-08-12T07:04:38.448Z,23.80
2022-08-12T07:07:08.733Z,23.80
2022-08-12T07:10:01.582Z,23.90
2022-08-12T07:12:28.752Z,24.00
2022-08-12T07:14:58.368Z,24.10
2022-08-12T07:17:31.654Z,24.20
2022-08-12T07:20:04.299Z,24.20
2022-08-12T07:22:33.489Z,24.30
2022-08-12T07:25:20.887Z,24.30
2022-08-12T07:27:53.948Z,24.30
2022-08-12T07:30:23.316Z,24.50
2022-08-12T07:32:52.470Z,24.50
2022-08-12T07:35:21.197Z,24.60
2022-08-12T07:37:51.641Z,24.70
2022-08-12T07:40:22.437Z,24.70
2022-08-12T07:42:50.976Z,24.80
2022-08-12T07:45:20.427Z,24.80
2022-08-12T07:47:50.009Z,25.00
2022-08-12T07:50:23.780Z,25.10
2022-08-12T07:52:52.758Z,25.10
2022-08-12T07:55:22.538Z,25.20
2022-08-12T07:57:54.250Z,25.30
2022-08-12T08:00:22.830Z,25.40
2022-08-12T08:02:54.544Z,25.50
2022-08-12T08:05:25.034Z,25.60
2022-08-12T08:07:55.723Z,25.70
2022-08-12T08:10:26.359Z,25.80
2022-08-12T08:12:53.791Z,26.00
2022-08-12T08:15:38.539Z,26.00
2022-08-12T08:18:18.416Z,26.10
2022-08-12T08:20:56.094Z,26.20
2022-08-12T08:23:46.170Z,26.40
2022-08-12T08:26:20.669Z,26.50
2022-08-12T08:28:50.244Z,26.60
2022-08-12T08:31:18.810Z,26.70
2022-08-12T08:34:09.687Z,26.70
2022-08-12T08:36:35.645Z,26.90
2022-08-12T08:39:05.542Z,26.90
2022-08-12T08:42:16.224Z,27.00
2022-08-12T08:44:42.556Z,27.10
2022-08-12T08:47:14.036Z,27.20
2022-08-12T08:49:42.784Z,27.30
2022-08-12T08:52:12.801Z,27.40
2022-08-12T08:55:01.203Z,27.50
2022-08-12T08:57:43.696Z,27.50
2022-08-12T09:00:15.304Z,27.60
2022-08-12T09:02:49.115Z,27.70
2022-08-12T09:05:27.084Z,27.70
2022-08-12T09:08:11.920Z,27.80
2022-08-12T09:10:45.316Z,27.90
2022-08-12T09:14:11.055Z,28.00
2022-08-12T09:16:20.877Z,28.10
2022-08-12T09:18:52.129Z,28.10
2022-08-12T09:24:10.455Z,28.30
2022-08-12T09:26:46.255Z,28.30
2022-08-12T09:29:20.407Z,28.40
2022-08-12T09:32:31.342Z,28.50
2022-08-12T09:34:58.151Z,28.50
2022-08-12T09:37:28.411Z,28.60
2022-08-12T09:42:07.316Z,28.60
2022-08-12T09:43:24.947Z,28.70
2022-08-12T09:46:06.125Z,28.80
2022-08-12T09:48:56.518Z,28.80
2022-08-12T09:51:37.317Z,28.90
2022-08-12T09:54:31.640Z,29.00
2022-08-12T09:58:07.112Z,29.10
2022-08-12T10:00:14.954Z,29.20
2022-08-12T10:02:45.267Z,29.30
2022-08-12T10:05:22.778Z,29.40
2022-08-12T10:08:13.458Z,29.50
2022-08-12T10:11:05.807Z,29.60
2022-08-12T10:13:44.569Z,29.70
2022-08-12T10:16:18.626Z,29.80
2022-08-12T10:18:55.840Z,29.80
2022-08-12T10:21:35.623Z,29.90
2022-08-12T10:24:06.159Z,30.00
2022-08-12T10:26:53.496Z,30.10
2022-08-12T10:30:03.377Z,30.10
2022-08-12T10:32:44.244Z,30.20
2022-08-12T10:35:17.500Z,30.30
2022-08-12T10:38:33.655Z,30.40
2022-08-12T10:40:55.802Z,30.50
2022-08-12T10:43:54.262Z,30.60
2022-08-12T10:46:30.705Z,30.70
2022-08-12T10:49:06.930Z,30.70
2022-08-12T10:52:31.112Z,30.80
2022-08-12T10:54:42.639Z,30.80
2022-08-12T10:57:18.295Z,30.90
2022-08-12T11:00:30.947Z,30.90
2022-08-12T11:04:35.500Z,31.10
2022-08-12T11:07:09.189Z,31.10
2022-08-12T11:08:43.035Z,31.20
2022-08-12T11:12:07.447Z,31.20
2022-08-12T11:14:09.891Z,31.30
2022-08-12T11:17:34.758Z,31.40
2022-08-12T11:19:47.339Z,31.40
2022-08-12T11:22:17.989Z,31.40
2022-08-12T11:24:51.341Z,31.50
2022-08-12T11:27:21.548Z,31.50
2022-08-12T11:30:05.948Z,31.60
2022-08-12T11:32:38.513Z,31.60
2022-08-12T11:35:08.772Z,31.70
2022-08-12T11:37:58.866Z,31.70
2022-08-12T11:40:29.687Z,31.70
2022-08-12T11:43:18.936Z,31.80
2022-08-12T11:45:47.556Z,31.80
2022-08-12T11:48:26.656Z,31.90
2022-08-12T11:50:55.797Z,32.00
2022-08-12T11:53:57.059Z,32.00
2022-08-12T11:56:14.832Z,32.00
2022-08-12T12:02:01.267Z,32.00
2022-08-12T12:04:29.199Z,31.90
2022-08-12T12:07:06.678Z,31.90
2022-08-12T12:09:52.235Z,32.00
2022-08-12T12:12:25.217Z,32.10
2022-08-12T12:14:54.236Z,32.20
2022-08-12T12:17:23.767Z,32.20
2022-08-12T12:19:53.258Z,32.40
2022-08-12T12:22:23.051Z,32.40
2022-08-12T12:24:55.518Z,32.50
2022-08-12T12:28:04.027Z,32.50
2022-08-12T12:30:25.673Z,32.50
2022-08-12T12:32:58.680Z,32.60
2022-08-12T12:36:18.526Z,32.70
2022-08-12T12:38:17.570Z,32.70
2022-08-12T12:40:50.502Z,32.70
2022-08-12T12:43:28.389Z,32.70
2022-08-12T12:45:57.527Z,32.80
2022-08-12T12:48:25.903Z,32.80
2022-08-12T12:51:09.847Z,32.80
2022-08-12T12:54:05.252Z,32.80
2022-08-12T12:56:34.776Z,32.90
2022-08-12T12:59:06.170Z,32.90
2022-08-12T13:01:42.021Z,32.90
2022-08-12T13:11:53.353Z,32.90
2022-08-12T13:14:29.036Z,32.90
2022-08-12T13:17:02.824Z,33.00
2022-08-12T13:19:37.721Z,33.10
2022-08-12T13:22:20.326Z,33.10
2022-08-12T13:24:52.166Z,33.10
2022-08-12T13:27:34.941Z,33.20
2022-08-12T13:30:10.651Z,33.20
2022-08-12T13:32:40.805Z,33.20
2022-08-12T13:35:19.330Z,33.30
2022-08-12T13:38:02.733Z,33.30
2022-08-12T13:40:33.782Z,33.30
2022-08-12T13:43:06.998Z,33.30
2022-08-12T13:45:37.079Z,33.40
2022-08-12T13:48:06.912Z,33.40
2022-08-12T13:50:37.589Z,33.40
2022-08-12T13:53:24.605Z,33.50
2022-08-12T13:56:01.654Z,33.40
2022-08-12T13:58:32.928Z,33.60
2022-08-12T14:01:06.457Z,33.60
2022-08-12T14:03:50.444Z,33.60
2022-08-12T14:06:20.734Z,33.70
2022-08-12T14:08:50.677Z,33.60
2022-08-12T14:11:25.228Z,33.60
2022-08-12T14:14:05.386Z,33.60
2022-08-12T14:16:48.972Z,33.60
2022-08-12T14:19:25.624Z,33.70
2022-08-12T14:22:05.489Z,33.80
2022-08-12T14:24:40.351Z,33.80
2022-08-12T14:27:11.297Z,33.80
2022-08-12T14:30:15.106Z,33.80
2022-08-12T14:32:39.495Z,33.80
2022-08-12T14:35:12.246Z,33.90
2022-08-12T14:37:55.508Z,34.00
2022-08-12T14:40:35.177Z,34.90
2022-08-12T14:43:06.391Z,35.80
2022-08-12T14:45:48.866Z,35.20
2022-08-12T14:48:24.049Z,35.00
2022-08-12T14:52:16.176Z,34.90
2022-08-12T14:55:28.421Z,34.70
2022-08-12T14:57:05.553Z,34.70
2022-08-12T14:59:55.697Z,34.70
2022-08-12T15:02:29.727Z,34.70
2022-08-12T15:05:03.452Z,34.60
2022-08-12T15:07:34.205Z,34.70
2022-08-12T15:10:25.346Z,35.40
2022-08-12T15:13:07.185Z,35.70
2022-08-12T15:15:43.826Z,35.40
2022-08-12T15:18:15.700Z,35.20
2022-08-12T15:20:54.537Z,35.00
2022-08-12T15:23:23.937Z,35.00
2022-08-12T15:26:02.850Z,34.80
2022-08-12T15:28:33.749Z,34.80
2022-08-12T15:31:03.333Z,34.60
2022-08-12T15:33:50.504Z,34.40
2022-08-12T15:36:53.963Z,34.30
2022-08-12T15:39:17.130Z,34.10
2022-08-12T15:41:50.088Z,33.90
2022-08-12T15:44:41.796Z,33.80
2022-08-12T15:47:09.068Z,33.70
2022-08-12T15:49:43.460Z,33.60
2022-08-12T15:52:30.303Z,33.50
2022-08-12T15:55:06.154Z,33.40
2022-08-12T15:57:41.619Z,33.30
2022-08-12T16:00:32.169Z,33.20
2022-08-12T16:03:01.901Z,33.20
2022-08-12T16:06:13.032Z,33.10
2022-08-12T16:08:27.654Z,33.00
2022-08-12T16:10:56.774Z,33.00
2022-08-12T16:13:34.266Z,32.90
2022-08-12T16:16:23.124Z,32.80
2022-08-12T16:18:59.459Z,32.70
2022-08-12T16:21:51.965Z,32.70
2022-08-12T16:24:21.814Z,32.70
2022-08-12T16:26:51.383Z,32.60
2022-08-12T16:29:38.637Z,32.50
2022-08-12T16:32:19.431Z,32.50
2022-08-12T16:34:55.525Z,32.40
2022-08-12T16:37:32.662Z,32.30
2022-08-12T16:40:14.979Z,32.30
2022-08-12T16:42:54.277Z,32.20
2022-08-12T16:46:04.293Z,32.10
2022-08-12T16:48:34.145Z,32.00
2022-08-12T16:51:04.940Z,31.90
2022-08-12T16:53:44.672Z,31.80
2022-08-12T16:56:17.136Z,31.80
2022-08-12T16:58:47.807Z,31.70
2022-08-12T17:01:19.724Z,31.60
2022-08-12T17:04:08.864Z,31.50
2022-08-12T17:06:43.562Z,31.40
2022-08-12T17:09:17.631Z,31.30
2022-08-12T17:11:49.715Z,31.30
2022-08-12T17:14:23.033Z,31.20
2022-08-12T17:16:55.044Z,31.10
2022-08-12T17:20:28.960Z,31.00
2022-08-12T17:22:16.456Z,30.90
2022-08-12T17:24:54.794Z,30.80
2022-08-12T17:27:30.879Z,30.70
2022-08-12T17:30:18.500Z,30.70
2022-08-12T17:32:53.412Z,30.60
2022-08-12T17:35:37.384Z,30.50
2022-08-12T17:38:13.713Z,30.40
2022-08-12T17:40:44.014Z,30.40
2022-08-12T17:43:56.180Z,30.30
2022-08-12T17:46:13.086Z,30.20
2022-08-12T17:48:57.681Z,30.10
2022-08-12T17:51:31.279Z,30.10
2022-08-12T17:54:10.465Z,30.00
2022-08-12T17:56:43.594Z,29.90
2022-08-12T17:59:48.230Z,29.90
2022-08-12T18:02:25.672Z,29.90
2022-08-12T18:05:04.753Z,29.80
2022-08-12T18:07:39.234Z,29.70
2022-08-12T18:10:09.011Z,29.70
2022-08-12T18:12:42.724Z,29.60
2022-08-12T18:15:47.717Z,29.60
2022-08-12T18:18:16.823Z,29.50
2022-08-12T18:20:46.289Z,29.50
2022-08-12T18:23:14.794Z,29.40
2022-08-12T18:26:16.877Z,29.40
2022-08-12T18:28:47.988Z,29.30
2022-08-12T18:31:23.365Z,29.30
2022-08-12T18:33:53.151Z,29.20
2022-08-12T18:36:22.257Z,29.10
2022-08-12T18:38:56.235Z,29.10
2022-08-12T18:41:34.440Z,29.10
2022-08-12T18:44:09.695Z,29.00
2022-08-12T18:46:53.879Z,29.00
2022-08-12T18:49:30.770Z,28.90
2022-08-12T18:52:08.604Z,28.90
2022-08-12T18:54:48.943Z,28.80
2022-08-12T18:57:45.809Z,28.80
2022-08-12T19:00:21.286Z,28.70
2022-08-12T19:02:53.548Z,28.70
2022-08-12T19:05:53.143Z,28.60
2022-08-12T19:08:17.269Z,28.60
2022-08-12T19:10:51.149Z,28.50
2022-08-12T19:13:38.257Z,28.50
2022-08-12T19:16:10.891Z,28.50
2022-08-12T19:18:44.756Z,28.40
2022-08-12T19:21:16.909Z,28.40
2022-08-12T19:24:09.657Z,28.40
2022-08-12T19:26:37.610Z,28.30
2022-08-12T19:29:08.345Z,28.30
2022-08-12T19:31:45.410Z,28.20
2022-08-12T19:37:27.373Z,28.20
2022-08-12T19:40:31.957Z,28.20
2022-08-12T19:43:01.440Z,28.10
2022-08-12T19:45:43.252Z,28.00
2022-08-12T19:48:18.429Z,28.00
2022-08-12T19:50:55.632Z,28.00
2022-08-12T19:53:30.259Z,28.00
2022-08-12T19:56:18.691Z,27.90
2022-08-12T19:58:53.880Z,27.90
2022-08-12T20:01:22.691Z,27.80
2022-08-12T20:03:59.135Z,27.80
2022-08-12T20:06:39.610Z,27.80
2022-08-12T20:09:09.213Z,27.80
2022-08-12T20:12:13.401Z,27.70
2022-08-12T20:14:29.092Z,27.70
2022-08-12T20:17:02.358Z,27.70
2022-08-12T20:20:01.251Z,27.70
2022-08-12T20:22:29.688Z,27.70
2022-08-12T20:25:09.157Z,27.70
2022-08-12T20:28:05.315Z,27.60
2022-08-12T20:30:37.335Z,27.60
2022-08-12T20:33:19.060Z,27.60
2022-08-12T20:36:14.432Z,27.50
2022-08-12T20:38:53.404Z,27.50
2022-08-12T20:41:30.327Z,27.40
2022-08-12T20:44:00.955Z,27.40
2022-08-12T20:46:33.014Z,27.40
2022-08-12T20:49:14.609Z,27.40
2022-08-12T20:51:55.501Z,27.30
2022-08-12T20:54:32.465Z,27.20
2022-08-12T20:57:10.007Z,27.20
2022-08-12T20:59:47.758Z,27.20
2022-08-12T21:02:24.643Z,27.20
2022-08-12T21:05:20.034Z,27.20
2022-08-12T21:07:51.725Z,27.10
2022-08-12T21:10:26.681Z,27.10
2022-08-12T21:12:56.058Z,27.10
2022-08-12T21:15:30.628Z,27.10
2022-08-12T21:18:28.436Z,27.10
2022-08-12T21:20:59.217Z,27.10
2022-08-12T21:23:30.990Z,27.10
2022-08-12T21:26:11.235Z,27.00
2022-08-12T21:28:43.073Z,27.00
2022-08-12T21:32:39.825Z,27.00
2022-08-12T21:34:22.143Z,26.90
2022-08-12T21:37:26.983Z,27.00
2022-08-12T21:39:56.202Z,26.90
2022-08-12T21:42:29.432Z,26.90
2022-08-12T21:45:47.637Z,26.90
2022-08-12T21:47:53.087Z,26.90
2022-08-12T21:50:22.129Z,26.90
2022-08-12T21:52:58.089Z,26.80
2022-08-12T21:55:26.817Z,26.80
2022-08-12T21:58:02.625Z,26.80
2022-08-12T22:00:36.757Z,26.80
2022-08-12T22:04:03.523Z,26.80
2022-08-12T22:06:31.463Z,26.70
2022-08-12T22:09:16.283Z,26.70
2022-08-12T22:11:49.151Z,26.70
2022-08-12T22:14:28.372Z,26.70
2022-08-12T22:17:04.995Z,26.70
2022-08-12T22:19:36.563Z,26.70
2022-08-12T22:22:05.654Z,26.70
2022-08-12T22:24:34.215Z,26.70
2022-08-12T22:27:18.070Z,26.70
2022-08-12T22:30:27.932Z,26.60
2022-08-12T22:32:56.296Z,26.60
2022-08-12T22:35:55.237Z,26.60
2022-08-12T22:38:23.918Z,26.60
2022-08-12T22:41:01.999Z,26.60
2022-08-12T22:44:00.982Z,26.60
2022-08-12T22:46:51.963Z,26.50
2022-08-12T22:49:36.325Z,26.50
2022-08-12T22:52:12.884Z,26.50
2022-08-12T22:55:02.643Z,26.40
2022-08-12T22:57:49.413Z,26.40
2022-08-12T23:00:24.170Z,26.40
2022-08-12T23:03:02.958Z,26.40
2022-08-12T23:05:57.483Z,26.40
2022-08-12T23:08:30.167Z,26.40
2022-08-12T23:11:05.830Z,26.40
2022-08-12T23:13:54.953Z,26.40
2022-08-12T23:16:34.369Z,26.30
2022-08-12T23:19:22.785Z,26.30
2022-08-12T23:22:05.356Z,26.30
2022-08-12T23:24:55.541Z,26.30
2022-08-12T23:27:52.257Z,26.20
2022-08-12T23:30:31.354Z,26.20
2022-08-12T23:33:01.639Z,26.20
2022-08-12T23:35:45.957Z,26.20
2022-08-12T23:38:30.868Z,26.20
2022-08-12T23:41:08.341Z,26.20
2022-08-12T23:43:42.809Z,26.20
2022-08-12T23:46:25.842Z,26.20
2022-08-12T23:48:58.498Z,26.10
2022-08-12T23:51:32.161Z,26.10
2022-08-12T23:54:07.233Z,26.10
2022-08-12T23:56:37.340Z,26.10
2022-08-12T23:59:09.160Z,26.10
